sensor_id;sensor_type;location;lat;lon;timestamp;temperature;humidity
52725;DHT22;38621;52.830;6.914;2023-11-19T00:00:50;10.60;99.90
52725;DHT22;38621;52.830;6.914;2023-11-19T00:03:16;10.60;99.90
52725;DHT22;38621;52.830;6.914;2023-11-19T00:05:43;10.60;99.90
52725;DHT22;38621;52.830;6.914;2023-11-19T00:08:10;10.60;99.90
52725;DHT22;38621;52.830;6.914;2023-11-19T00:10:35;10.60;99.90
52725;DHT22;38621;52.830;6.914;2023-11-19T00:13:01;10.60;99.90
52725;DHT22;38621;52.830;6.914;2023-11-19T00:15:28;10.70;99.90
52725;DHT22;38621;52.830;6.914;2023-11-19T00:17:54;10.70;99.90
52725;DHT22;38621;52.830;6.914;2023-11-19T00:20:20;10.70;99.90
52725;DHT22;38621;52.830;6.914;2023-11-19T00:22:47;10.80;99.90
52725;DHT22;38621;52.830;6.914;2023-11-19T00:25:20;10.80;99.90
52725;DHT22;38621;52.830;6.914;2023-11-19T00:27:47;10.80;99.90
52725;DHT22;38621;52.830;6.914;2023-11-19T00:30:13;10.80;99.90
52725;DHT22;38621;52.830;6.914;2023-11-19T00:32:40;10.90;99.90
52725;DHT22;38621;52.830;6.914;2023-11-19T00:35:07;10.80;99.90
52725;DHT22;38621;52.830;6.914;2023-11-19T00:37:33;10.90;99.90
52725;DHT22;38621;52.830;6.914;2023-11-19T00:39:59;10.90;99.90
52725;DHT22;38621;52.830;6.914;2023-11-19T00:42:24;11.00;99.90
52725;DHT22;38621;52.830;6.914;2023-11-19T00:44:51;11.00;99.90
52725;DHT22;38621;52.830;6.914;2023-11-19T00:47:17;11.00;99.90
52725;DHT22;38621;52.830;6.914;2023-11-19T00:49:47;11.10;99.90
52725;DHT22;38621;52.830;6.914;2023-11-19T00:52:14;11.10;99.90
52725;DHT22;38621;52.830;6.914;2023-11-19T00:54:40;11.20;99.90
52725;DHT22;38621;52.830;6.914;2023-11-19T00:57:06;11.20;99.90
52725;DHT22;38621;52.830;6.914;2023-11-19T00:59:32;11.30;99.90
52725;DHT22;38621;52.830;6.914;2023-11-19T01:01:58;11.30;99.90
52725;DHT22;38621;52.830;6.914;2023-11-19T01:04:29;11.30;99.90
52725;DHT22;38621;52.830;6.914;2023-11-19T01:06:54;11.40;99.90
52725;DHT22;38621;52.830;6.914;2023-11-19T01:09:20;11.40;99.90
52725;DHT22;38621;52.830;6.914;2023-11-19T01:11:46;11.40;99.90
52725;DHT22;38621;52.830;6.914;2023-11-19T01:14:11;11.40;99.90
52725;DHT22;38621;52.830;6.914;2023-11-19T01:16:37;11.40;99.90
52725;DHT22;38621;52.830;6.914;2023-11-19T01:19:03;11.50;99.90
52725;DHT22;38621;52.830;6.914;2023-11-19T01:21:30;11.50;99.90
52725;DHT22;38621;52.830;6.914;2023-11-19T01:23:57;11.50;99.90
52725;DHT22;38621;52.830;6.914;2023-11-19T01:26:25;11.60;99.90
52725;DHT22;38621;52.830;6.914;2023-11-19T01:28:50;11.50;99.90
52725;DHT22;38621;52.830;6.914;2023-11-19T01:31:18;11.50;99.90
52725;DHT22;38621;52.830;6.914;2023-11-19T01:33:44;11.60;99.90
52725;DHT22;38621;52.830;6.914;2023-11-19T01:36:13;11.60;99.90
52725;DHT22;38621;52.830;6.914;2023-11-19T01:38:39;11.60;99.90
52725;DHT22;38621;52.830;6.914;2023-11-19T01:41:04;11.60;99.90
52725;DHT22;38621;52.830;6.914;2023-11-19T01:43:36;11.60;99.90
52725;DHT22;38621;52.830;6.914;2023-11-19T01:46:04;11.60;99.90
52725;DHT22;38621;52.830;6.914;2023-11-19T01:48:31;11.60;99.90
52725;DHT22;38621;52.830;6.914;2023-11-19T01:50:58;11.60;99.90
52725;DHT22;38621;52.830;6.914;2023-11-19T01:53:25;11.60;99.90
52725;DHT22;38621;52.830;6.914;2023-11-19T01:55:51;11.60;99.90
52725;DHT22;38621;52.830;6.914;2023-11-19T01:58:18;11.60;99.90
52725;DHT22;38621;52.830;6.914;2023-11-19T02:00:45;11.60;99.90
52725;DHT22;38621;52.830;6.914;2023-11-19T02:03:11;11.60;99.90
52725;DHT22;38621;52.830;6.914;2023-11-19T02:05:37;11.60;99.90
52725;DHT22;38621;52.830;6.914;2023-11-19T02:08:04;11.60;99.90
52725;DHT22;38621;52.830;6.914;2023-11-19T02:10:30;11.60;99.90
52725;DHT22;38621;52.830;6.914;2023-11-19T02:13:01;11.60;99.90
52725;DHT22;38621;52.830;6.914;2023-11-19T02:15:26;11.60;99.90
52725;DHT22;38621;52.830;6.914;2023-11-19T02:17:52;11.70;99.90
52725;DHT22;38621;52.830;6.914;2023-11-19T02:20:18;11.60;99.90
52725;DHT22;38621;52.830;6.914;2023-11-19T02:22:49;11.70;99.90
52725;DHT22;38621;52.830;6.914;2023-11-19T02:25:25;11.70;99.90
52725;DHT22;38621;52.830;6.914;2023-11-19T02:28:02;11.70;99.90
52725;DHT22;38621;52.830;6.914;2023-11-19T02:30:29;11.70;99.90
52725;DHT22;38621;52.830;6.914;2023-11-19T02:32:59;11.70;99.90
52725;DHT22;38621;52.830;6.914;2023-11-19T02:35:27;11.70;99.90
52725;DHT22;38621;52.830;6.914;2023-11-19T02:37:56;11.70;99.90
52725;DHT22;38621;52.830;6.914;2023-11-19T02:40:23;11.70;99.90
52725;DHT22;38621;52.830;6.914;2023-11-19T02:42:50;11.60;99.90
52725;DHT22;38621;52.830;6.914;2023-11-19T02:45:16;11.70;99.90
52725;DHT22;38621;52.830;6.914;2023-11-19T02:47:43;11.70;99.90
52725;DHT22;38621;52.830;6.914;2023-11-19T02:50:12;11.70;99.90
52725;DHT22;38621;52.830;6.914;2023-11-19T02:52:44;11.70;99.90
52725;DHT22;38621;52.830;6.914;2023-11-19T02:55:11;11.70;99.90
52725;DHT22;38621;52.830;6.914;2023-11-19T02:57:41;11.70;99.90
52725;DHT22;38621;52.830;6.914;2023-11-19T03:00:21;11.80;99.90
52725;DHT22;38621;52.830;6.914;2023-11-19T03:02:51;11.90;99.90
52725;DHT22;38621;52.830;6.914;2023-11-19T03:05:40;11.90;99.90
52725;DHT22;38621;52.830;6.914;2023-11-19T03:08:06;11.90;99.90
52725;DHT22;38621;52.830;6.914;2023-11-19T03:10:32;12.00;99.90
52725;DHT22;38621;52.830;6.914;2023-11-19T03:13:00;12.10;99.90
52725;DHT22;38621;52.830;6.914;2023-11-19T03:15:27;12.20;99.90
52725;DHT22;38621;52.830;6.914;2023-11-19T03:17:53;12.20;99.90
52725;DHT22;38621;52.830;6.914;2023-11-19T03:20:19;12.20;99.90
52725;DHT22;38621;52.830;6.914;2023-11-19T03:22:46;12.30;99.90
52725;DHT22;38621;52.830;6.914;2023-11-19T03:25:12;12.30;99.90
52725;DHT22;38621;52.830;6.914;2023-11-19T03:27:39;12.30;99.90
52725;DHT22;38621;52.830;6.914;2023-11-19T03:30:05;12.20;99.90
52725;DHT22;38621;52.830;6.914;2023-11-19T03:32:32;12.30;99.90
52725;DHT22;38621;52.830;6.914;2023-11-19T03:34:58;12.20;99.90
52725;DHT22;38621;52.830;6.914;2023-11-19T03:37:26;12.20;99.90
52725;DHT22;38621;52.830;6.914;2023-11-19T03:39:53;12.20;99.90
52725;DHT22;38621;52.830;6.914;2023-11-19T03:42:19;12.10;99.90
52725;DHT22;38621;52.830;6.914;2023-11-19T03:44:46;12.10;99.90
52725;DHT22;38621;52.830;6.914;2023-11-19T03:47:12;12.10;99.90
52725;DHT22;38621;52.830;6.914;2023-11-19T03:49:37;12.20;99.90
52725;DHT22;38621;52.830;6.914;2023-11-19T03:52:03;12.20;99.90
52725;DHT22;38621;52.830;6.914;2023-11-19T03:54:31;12.20;99.90
52725;DHT22;38621;52.830;6.914;2023-11-19T03:56:58;12.10;99.90
52725;DHT22;38621;52.830;6.914;2023-11-19T03:59:25;12.10;99.90
52725;DHT22;38621;52.830;6.914;2023-11-19T04:01:51;12.10;99.90
52725;DHT22;38621;52.830;6.914;2023-11-19T04:04:19;12.10;99.90
52725;DHT22;38621;52.830;6.914;2023-11-19T04:06:44;12.20;99.90
52725;DHT22;38621;52.830;6.914;2023-11-19T04:09:10;12.10;99.90
52725;DHT22;38621;52.830;6.914;2023-11-19T04:11:36;12.20;99.90
52725;DHT22;38621;52.830;6.914;2023-11-19T04:14:01;12.20;99.90
52725;DHT22;38621;52.830;6.914;2023-11-19T04:16:27;12.20;99.90
52725;DHT22;38621;52.830;6.914;2023-11-19T04:18:54;12.10;99.90
52725;DHT22;38621;52.830;6.914;2023-11-19T04:21:20;12.20;99.90
52725;DHT22;38621;52.830;6.914;2023-11-19T04:23:45;12.20;99.90
52725;DHT22;38621;52.830;6.914;2023-11-19T04:26:11;12.10;99.90
52725;DHT22;38621;52.830;6.914;2023-11-19T04:28:37;12.20;99.90
52725;DHT22;38621;52.830;6.914;2023-11-19T04:31:03;12.20;99.90
52725;DHT22;38621;52.830;6.914;2023-11-19T04:33:29;12.10;99.90
52725;DHT22;38621;52.830;6.914;2023-11-19T04:35:54;12.10;99.90
52725;DHT22;38621;52.830;6.914;2023-11-19T04:38:20;12.10;99.90
52725;DHT22;38621;52.830;6.914;2023-11-19T04:40:46;12.00;99.90
52725;DHT22;38621;52.830;6.914;2023-11-19T04:43:11;12.00;99.90
52725;DHT22;38621;52.830;6.914;2023-11-19T04:45:38;12.00;99.90
52725;DHT22;38621;52.830;6.914;2023-11-19T04:48:05;12.00;99.90
52725;DHT22;38621;52.830;6.914;2023-11-19T04:50:31;12.00;99.90
52725;DHT22;38621;52.830;6.914;2023-11-19T04:52:56;12.00;99.90
52725;DHT22;38621;52.830;6.914;2023-11-19T04:55:22;12.10;99.90
52725;DHT22;38621;52.830;6.914;2023-11-19T04:57:48;12.00;99.90
52725;DHT22;38621;52.830;6.914;2023-11-19T05:00:14;12.10;99.90
52725;DHT22;38621;52.830;6.914;2023-11-19T05:02:39;12.10;99.90
52725;DHT22;38621;52.830;6.914;2023-11-19T05:05:05;12.10;99.90
52725;DHT22;38621;52.830;6.914;2023-11-19T05:07:31;12.10;99.90
52725;DHT22;38621;52.830;6.914;2023-11-19T05:09:57;12.10;99.90
52725;DHT22;38621;52.830;6.914;2023-11-19T05:12:23;12.10;99.90
52725;DHT22;38621;52.830;6.914;2023-11-19T05:14:49;12.10;99.90
52725;DHT22;38621;52.830;6.914;2023-11-19T05:17:19;12.10;99.90
52725;DHT22;38621;52.830;6.914;2023-11-19T05:19:45;12.00;99.90
52725;DHT22;38621;52.830;6.914;2023-11-19T05:22:11;12.00;99.90
52725;DHT22;38621;52.830;6.914;2023-11-19T05:24:38;12.00;99.90
52725;DHT22;38621;52.830;6.914;2023-11-19T05:27:05;12.00;99.90
52725;DHT22;38621;52.830;6.914;2023-11-19T05:29:32;11.90;99.90
52725;DHT22;38621;52.830;6.914;2023-11-19T05:31:58;11.90;99.90
52725;DHT22;38621;52.830;6.914;2023-11-19T05:34:24;11.90;99.90
52725;DHT22;38621;52.830;6.914;2023-11-19T05:36:50;11.90;99.90
52725;DHT22;38621;52.830;6.914;2023-11-19T05:39:17;11.90;99.90
52725;DHT22;38621;52.830;6.914;2023-11-19T05:41:44;11.80;99.90
52725;DHT22;38621;52.830;6.914;2023-11-19T05:44:09;11.80;99.90
52725;DHT22;38621;52.830;6.914;2023-11-19T05:46:35;11.80;99.90
52725;DHT22;38621;52.830;6.914;2023-11-19T05:49:05;11.80;99.90
52725;DHT22;38621;52.830;6.914;2023-11-19T05:51:31;11.80;99.90
52725;DHT22;38621;52.830;6.914;2023-11-19T05:53:57;11.80;99.90
52725;DHT22;38621;52.830;6.914;2023-11-19T05:56:23;11.80;99.90
52725;DHT22;38621;52.830;6.914;2023-11-19T05:58:48;11.80;99.90
52725;DHT22;38621;52.830;6.914;2023-11-19T06:01:14;11.70;99.90
52725;DHT22;38621;52.830;6.914;2023-11-19T06:03:40;11.80;99.90
52725;DHT22;38621;52.830;6.914;2023-11-19T06:06:08;11.80;99.90
52725;DHT22;38621;52.830;6.914;2023-11-19T06:08:34;11.80;99.90
52725;DHT22;38621;52.830;6.914;2023-11-19T06:11:00;11.90;99.90
52725;DHT22;38621;52.830;6.914;2023-11-19T06:13:26;11.80;99.90
52725;DHT22;38621;52.830;6.914;2023-11-19T06:15:52;11.80;99.90
52725;DHT22;38621;52.830;6.914;2023-11-19T06:18:18;11.70;99.90
52725;DHT22;38621;52.830;6.914;2023-11-19T06:20:45;11.70;99.90
52725;DHT22;38621;52.830;6.914;2023-11-19T06:23:11;11.70;99.90
52725;DHT22;38621;52.830;6.914;2023-11-19T06:25:36;11.70;99.90
52725;DHT22;38621;52.830;6.914;2023-11-19T06:28:03;11.70;99.90
52725;DHT22;38621;52.830;6.914;2023-11-19T06:30:28;11.60;99.90
52725;DHT22;38621;52.830;6.914;2023-11-19T06:32:56;11.70;99.90
52725;DHT22;38621;52.830;6.914;2023-11-19T06:35:21;11.60;99.90
52725;DHT22;38621;52.830;6.914;2023-11-19T06:37:47;11.60;99.90
52725;DHT22;38621;52.830;6.914;2023-11-19T06:40:13;11.60;99.90
52725;DHT22;38621;52.830;6.914;2023-11-19T06:42:41;11.60;99.90
52725;DHT22;38621;52.830;6.914;2023-11-19T06:45:07;11.60;99.90
52725;DHT22;38621;52.830;6.914;2023-11-19T06:47:32;11.60;99.90
52725;DHT22;38621;52.830;6.914;2023-11-19T06:49:58;11.60;99.90
52725;DHT22;38621;52.830;6.914;2023-11-19T06:52:24;11.60;99.90
52725;DHT22;38621;52.830;6.914;2023-11-19T06:54:50;11.60;99.90
52725;DHT22;38621;52.830;6.914;2023-11-19T06:57:16;11.50;99.90
52725;DHT22;38621;52.830;6.914;2023-11-19T06:59:42;11.50;99.90
52725;DHT22;38621;52.830;6.914;2023-11-19T07:02:08;11.50;99.90
52725;DHT22;38621;52.830;6.914;2023-11-19T07:04:34;11.50;99.90
52725;DHT22;38621;52.830;6.914;2023-11-19T07:07:00;11.50;99.90
52725;DHT22;38621;52.830;6.914;2023-11-19T07:09:26;11.40;99.90
52725;DHT22;38621;52.830;6.914;2023-11-19T07:11:52;11.40;99.90
52725;DHT22;38621;52.830;6.914;2023-11-19T07:14:19;11.40;99.90
52725;DHT22;38621;52.830;6.914;2023-11-19T07:16:45;11.30;99.90
52725;DHT22;38621;52.830;6.914;2023-11-19T07:19:11;11.20;99.90
52725;DHT22;38621;52.830;6.914;2023-11-19T07:21:41;11.20;99.90
52725;DHT22;38621;52.830;6.914;2023-11-19T07:24:10;11.20;99.90
52725;DHT22;38621;52.830;6.914;2023-11-19T07:26:36;11.30;99.90
52725;DHT22;38621;52.830;6.914;2023-11-19T07:29:05;11.30;99.90
52725;DHT22;38621;52.830;6.914;2023-11-19T07:31:33;11.30;99.90
52725;DHT22;38621;52.830;6.914;2023-11-19T07:33:58;11.30;99.90
52725;DHT22;38621;52.830;6.914;2023-11-19T07:36:24;11.30;99.90
52725;DHT22;38621;52.830;6.914;2023-11-19T07:38:50;11.30;99.90
52725;DHT22;38621;52.830;6.914;2023-11-19T07:41:16;11.40;99.90
52725;DHT22;38621;52.830;6.914;2023-11-19T07:43:43;11.30;99.90
52725;DHT22;38621;52.830;6.914;2023-11-19T07:46:13;11.30;99.90
52725;DHT22;38621;52.830;6.914;2023-11-19T07:48:40;11.30;99.90
52725;DHT22;38621;52.830;6.914;2023-11-19T07:51:06;11.30;99.90
52725;DHT22;38621;52.830;6.914;2023-11-19T07:53:32;11.30;99.90
52725;DHT22;38621;52.830;6.914;2023-11-19T07:56:00;11.30;99.90
52725;DHT22;38621;52.830;6.914;2023-11-19T07:58:26;11.30;99.90
52725;DHT22;38621;52.830;6.914;2023-11-19T08:00:52;11.30;99.90
52725;DHT22;38621;52.830;6.914;2023-11-19T08:03:18;11.30;99.90
52725;DHT22;38621;52.830;6.914;2023-11-19T08:05:49;11.40;99.90
52725;DHT22;38621;52.830;6.914;2023-11-19T08:08:16;11.40;99.90
52725;DHT22;38621;52.830;6.914;2023-11-19T08:10:43;11.50;99.90
52725;DHT22;38621;52.830;6.914;2023-11-19T08:13:13;11.40;99.90
52725;DHT22;38621;52.830;6.914;2023-11-19T08:15:38;11.40;99.90
52725;DHT22;38621;52.830;6.914;2023-11-19T08:18:05;11.40;99.90
52725;DHT22;38621;52.830;6.914;2023-11-19T08:20:33;11.50;99.90
52725;DHT22;38621;52.830;6.914;2023-11-19T08:22:59;11.50;99.90
52725;DHT22;38621;52.830;6.914;2023-11-19T08:25:24;11.40;99.90
52725;DHT22;38621;52.830;6.914;2023-11-19T08:27:50;11.40;99.90
52725;DHT22;38621;52.830;6.914;2023-11-19T08:30:16;11.40;99.90
52725;DHT22;38621;52.830;6.914;2023-11-19T08:32:42;11.30;99.90
52725;DHT22;38621;52.830;6.914;2023-11-19T08:35:07;11.30;99.90
52725;DHT22;38621;52.830;6.914;2023-11-19T08:37:34;11.30;99.90
52725;DHT22;38621;52.830;6.914;2023-11-19T08:40:02;11.20;99.90
52725;DHT22;38621;52.830;6.914;2023-11-19T08:42:29;11.20;99.90
52725;DHT22;38621;52.830;6.914;2023-11-19T08:44:55;11.10;99.90
52725;DHT22;38621;52.830;6.914;2023-11-19T08:47:21;11.10;99.90
52725;DHT22;38621;52.830;6.914;2023-11-19T08:49:50;11.00;99.90
52725;DHT22;38621;52.830;6.914;2023-11-19T08:52:17;11.00;99.90
52725;DHT22;38621;52.830;6.914;2023-11-19T08:54:43;11.00;99.90
52725;DHT22;38621;52.830;6.914;2023-11-19T08:57:09;11.00;99.90
52725;DHT22;38621;52.830;6.914;2023-11-19T08:59:35;10.90;99.90
52725;DHT22;38621;52.830;6.914;2023-11-19T09:02:04;10.90;99.90
52725;DHT22;38621;52.830;6.914;2023-11-19T09:04:29;10.90;99.90
52725;DHT22;38621;52.830;6.914;2023-11-19T09:06:57;10.90;99.90
52725;DHT22;38621;52.830;6.914;2023-11-19T09:09:23;10.90;99.90
52725;DHT22;38621;52.830;6.914;2023-11-19T09:11:49;10.80;99.90
52725;DHT22;38621;52.830;6.914;2023-11-19T09:14:14;10.80;99.90
52725;DHT22;38621;52.830;6.914;2023-11-19T09:16:41;10.80;99.90
52725;DHT22;38621;52.830;6.914;2023-11-19T09:19:06;10.80;99.90
52725;DHT22;38621;52.830;6.914;2023-11-19T09:21:32;10.90;99.90
52725;DHT22;38621;52.830;6.914;2023-11-19T09:24:00;10.90;99.90
52725;DHT22;38621;52.830;6.914;2023-11-19T09:26:25;11.00;99.90
52725;DHT22;38621;52.830;6.914;2023-11-19T09:28:51;11.00;99.90
52725;DHT22;38621;52.830;6.914;2023-11-19T09:31:17;11.00;99.90
52725;DHT22;38621;52.830;6.914;2023-11-19T09:33:44;11.00;99.90
52725;DHT22;38621;52.830;6.914;2023-11-19T09:36:12;11.00;99.90
52725;DHT22;38621;52.830;6.914;2023-11-19T09:38:40;11.00;99.90
52725;DHT22;38621;52.830;6.914;2023-11-19T09:41:06;11.00;99.90
52725;DHT22;38621;52.830;6.914;2023-11-19T09:43:35;11.10;99.90
52725;DHT22;38621;52.830;6.914;2023-11-19T09:46:06;11.10;99.90
52725;DHT22;38621;52.830;6.914;2023-11-19T09:48:36;11.20;99.90
52725;DHT22;38621;52.830;6.914;2023-11-19T09:51:07;11.20;99.90
52725;DHT22;38621;52.830;6.914;2023-11-19T09:53:33;11.20;99.90
52725;DHT22;38621;52.830;6.914;2023-11-19T09:56:00;11.30;99.90
52725;DHT22;38621;52.830;6.914;2023-11-19T09:58:29;11.30;99.90
52725;DHT22;38621;52.830;6.914;2023-11-19T10:00:55;11.30;99.90
52725;DHT22;38621;52.830;6.914;2023-11-19T10:03:22;11.40;99.90
52725;DHT22;38621;52.830;6.914;2023-11-19T10:05:48;11.40;99.90
52725;DHT22;38621;52.830;6.914;2023-11-19T10:08:14;11.40;99.90
52725;DHT22;38621;52.830;6.914;2023-11-19T10:10:41;11.50;99.90
52725;DHT22;38621;52.830;6.914;2023-11-19T10:13:07;11.50;99.90
52725;DHT22;38621;52.830;6.914;2023-11-19T10:15:37;11.60;99.90
52725;DHT22;38621;52.830;6.914;2023-11-19T10:18:03;11.50;99.90
52725;DHT22;38621;52.830;6.914;2023-11-19T10:20:40;11.50;99.90
52725;DHT22;38621;52.830;6.914;2023-11-19T10:23:06;11.40;99.90
52725;DHT22;38621;52.830;6.914;2023-11-19T10:25:33;11.20;99.90
52725;DHT22;38621;52.830;6.914;2023-11-19T10:27:59;11.00;99.90
52725;DHT22;38621;52.830;6.914;2023-11-19T10:30:30;11.00;99.90
52725;DHT22;38621;52.830;6.914;2023-11-19T10:33:08;10.90;99.90
52725;DHT22;38621;52.830;6.914;2023-11-19T10:35:35;10.90;99.90
52725;DHT22;38621;52.830;6.914;2023-11-19T10:38:14;10.80;99.90
52725;DHT22;38621;52.830;6.914;2023-11-19T10:40:43;10.90;99.90
52725;DHT22;38621;52.830;6.914;2023-11-19T10:43:09;11.00;99.90
52725;DHT22;38621;52.830;6.914;2023-11-19T10:45:36;11.20;99.90
52725;DHT22;38621;52.830;6.914;2023-11-19T10:48:05;11.20;99.90
52725;DHT22;38621;52.830;6.914;2023-11-19T10:50:33;11.20;99.90
52725;DHT22;38621;52.830;6.914;2023-11-19T10:53:03;11.20;99.90
52725;DHT22;38621;52.830;6.914;2023-11-19T10:55:31;11.20;99.90
52725;DHT22;38621;52.830;6.914;2023-11-19T10:58:08;11.20;99.90
52725;DHT22;38621;52.830;6.914;2023-11-19T11:00:57;11.10;99.90
52725;DHT22;38621;52.830;6.914;2023-11-19T11:03:33;11.10;99.90
52725;DHT22;38621;52.830;6.914;2023-11-19T11:06:03;11.00;99.90
52725;DHT22;38621;52.830;6.914;2023-11-19T11:08:30;11.00;99.90
52725;DHT22;38621;52.830;6.914;2023-11-19T11:10:56;10.90;99.90
52725;DHT22;38621;52.830;6.914;2023-11-19T11:13:26;11.00;99.90
52725;DHT22;38621;52.830;6.914;2023-11-19T11:15:56;11.10;99.90
52725;DHT22;38621;52.830;6.914;2023-11-19T11:18:26;11.10;99.90
52725;DHT22;38621;52.830;6.914;2023-11-19T11:20:58;11.20;99.90
52725;DHT22;38621;52.830;6.914;2023-11-19T11:28:24;11.20;99.90
52725;DHT22;38621;52.830;6.914;2023-11-19T11:33:37;11.30;99.90
52725;DHT22;38621;52.830;6.914;2023-11-19T11:36:19;11.30;99.90
52725;DHT22;38621;52.830;6.914;2023-11-19T11:38:48;11.30;99.90
52725;DHT22;38621;52.830;6.914;2023-11-19T11:41:22;11.20;99.90
52725;DHT22;38621;52.830;6.914;2023-11-19T11:43:54;11.20;99.90
52725;DHT22;38621;52.830;6.914;2023-11-19T11:49:02;11.30;99.90
52725;DHT22;38621;52.830;6.914;2023-11-19T11:54:30;11.20;99.90
52725;DHT22;38621;52.830;6.914;2023-11-19T11:57:10;11.30;99.90
52725;DHT22;38621;52.830;6.914;2023-11-19T11:59:47;11.20;99.90
52725;DHT22;38621;52.830;6.914;2023-11-19T12:02:21;11.00;99.90
52725;DHT22;38621;52.830;6.914;2023-11-19T12:04:51;11.00;99.90
52725;DHT22;38621;52.830;6.914;2023-11-19T12:07:22;10.90;99.90
52725;DHT22;38621;52.830;6.914;2023-11-19T12:10:07;11.00;99.90
52725;DHT22;38621;52.830;6.914;2023-11-19T12:12:33;11.00;99.90
52725;DHT22;38621;52.830;6.914;2023-11-19T12:15:03;11.00;99.90
52725;DHT22;38621;52.830;6.914;2023-11-19T12:17:49;11.10;99.90
52725;DHT22;38621;52.830;6.914;2023-11-19T12:20:16;11.10;99.90
52725;DHT22;38621;52.830;6.914;2023-11-19T12:22:44;11.10;99.90
52725;DHT22;38621;52.830;6.914;2023-11-19T12:25:11;11.10;99.90
52725;DHT22;38621;52.830;6.914;2023-11-19T12:27:45;11.10;99.90
52725;DHT22;38621;52.830;6.914;2023-11-19T12:30:11;11.00;99.90
52725;DHT22;38621;52.830;6.914;2023-11-19T12:32:41;10.90;99.90
52725;DHT22;38621;52.830;6.914;2023-11-19T12:35:08;10.90;99.90
52725;DHT22;38621;52.830;6.914;2023-11-19T12:37:47;10.90;99.90
52725;DHT22;38621;52.830;6.914;2023-11-19T12:40:15;10.80;99.90
52725;DHT22;38621;52.830;6.914;2023-11-19T12:42:41;10.80;99.90
52725;DHT22;38621;52.830;6.914;2023-11-19T12:45:07;10.70;99.90
52725;DHT22;38621;52.830;6.914;2023-11-19T12:47:46;10.70;99.90
52725;DHT22;38621;52.830;6.914;2023-11-19T12:50:13;10.70;99.90
52725;DHT22;38621;52.830;6.914;2023-11-19T12:52:39;10.60;99.90
52725;DHT22;38621;52.830;6.914;2023-11-19T12:55:23;10.60;99.90
52725;DHT22;38621;52.830;6.914;2023-11-19T12:57:49;10.60;99.90
52725;DHT22;38621;52.830;6.914;2023-11-19T13:00:19;10.70;99.90
52725;DHT22;38621;52.830;6.914;2023-11-19T13:02:48;10.70;99.90
52725;DHT22;38621;52.830;6.914;2023-11-19T13:05:25;10.70;99.90
52725;DHT22;38621;52.830;6.914;2023-11-19T13:08:07;10.70;99.90
52725;DHT22;38621;52.830;6.914;2023-11-19T13:10:50;10.80;99.90
52725;DHT22;38621;52.830;6.914;2023-11-19T13:13:22;10.80;99.90
52725;DHT22;38621;52.830;6.914;2023-11-19T13:15:47;10.80;99.90
52725;DHT22;38621;52.830;6.914;2023-11-19T13:18:16;10.70;99.90
52725;DHT22;38621;52.830;6.914;2023-11-19T13:20:42;11.10;99.90
52725;DHT22;38621;52.830;6.914;2023-11-19T13:23:08;10.70;99.90
52725;DHT22;38621;52.830;6.914;2023-11-19T13:25:33;10.80;99.90
52725;DHT22;38621;52.830;6.914;2023-11-19T13:27:59;10.80;99.90
52725;DHT22;38621;52.830;6.914;2023-11-19T13:30:26;10.90;99.90
52725;DHT22;38621;52.830;6.914;2023-11-19T13:32:52;10.90;99.90
52725;DHT22;38621;52.830;6.914;2023-11-19T13:35:21;11.00;99.90
52725;DHT22;38621;52.830;6.914;2023-11-19T13:37:48;11.00;99.90
52725;DHT22;38621;52.830;6.914;2023-11-19T13:40:14;11.00;99.90
52725;DHT22;38621;52.830;6.914;2023-11-19T13:42:44;11.10;99.90
52725;DHT22;38621;52.830;6.914;2023-11-19T13:47:44;11.10;99.90
52725;DHT22;38621;52.830;6.914;2023-11-19T13:50:14;11.10;99.90
52725;DHT22;38621;52.830;6.914;2023-11-19T13:52:42;11.10;99.90
52725;DHT22;38621;52.830;6.914;2023-11-19T13:55:09;11.20;99.90
52725;DHT22;38621;52.830;6.914;2023-11-19T13:57:39;11.20;99.90
52725;DHT22;38621;52.830;6.914;2023-11-19T14:00:10;11.30;99.90
52725;DHT22;38621;52.830;6.914;2023-11-19T14:02:42;11.30;99.90
52725;DHT22;38621;52.830;6.914;2023-11-19T14:05:12;11.30;99.90
52725;DHT22;38621;52.830;6.914;2023-11-19T14:07:38;11.30;99.90
52725;DHT22;38621;52.830;6.914;2023-11-19T14:10:05;11.30;99.90
52725;DHT22;38621;52.830;6.914;2023-11-19T14:12:32;11.30;99.90
52725;DHT22;38621;52.830;6.914;2023-11-19T14:14:58;11.30;99.90
52725;DHT22;38621;52.830;6.914;2023-11-19T14:17:25;11.30;99.90
52725;DHT22;38621;52.830;6.914;2023-11-19T14:19:51;11.30;99.90
52725;DHT22;38621;52.830;6.914;2023-11-19T14:22:17;11.20;99.90
52725;DHT22;38621;52.830;6.914;2023-11-19T14:24:43;11.20;99.90
52725;DHT22;38621;52.830;6.914;2023-11-19T14:27:09;11.10;99.90
52725;DHT22;38621;52.830;6.914;2023-11-19T14:29:36;11.10;99.90
52725;DHT22;38621;52.830;6.914;2023-11-19T14:32:02;11.00;99.90
52725;DHT22;38621;52.830;6.914;2023-11-19T14:34:32;11.00;99.90
52725;DHT22;38621;52.830;6.914;2023-11-19T14:36:58;10.90;99.90
52725;DHT22;38621;52.830;6.914;2023-11-19T14:39:24;10.80;99.90
52725;DHT22;38621;52.830;6.914;2023-11-19T14:41:50;10.70;99.90
52725;DHT22;38621;52.830;6.914;2023-11-19T14:44:16;10.70;99.90
52725;DHT22;38621;52.830;6.914;2023-11-19T14:46:42;10.60;99.90
52725;DHT22;38621;52.830;6.914;2023-11-19T14:49:08;10.60;99.90
52725;DHT22;38621;52.830;6.914;2023-11-19T14:51:37;10.60;99.90
52725;DHT22;38621;52.830;6.914;2023-11-19T14:54:06;10.50;99.90
52725;DHT22;38621;52.830;6.914;2023-11-19T14:56:32;10.50;99.90
52725;DHT22;38621;52.830;6.914;2023-11-19T14:58:58;10.50;99.90
52725;DHT22;38621;52.830;6.914;2023-11-19T15:01:24;10.50;99.90
52725;DHT22;38621;52.830;6.914;2023-11-19T15:03:50;10.50;99.90
52725;DHT22;38621;52.830;6.914;2023-11-19T15:06:16;10.50;99.90
52725;DHT22;38621;52.830;6.914;2023-11-19T15:08:42;10.50;99.90
52725;DHT22;38621;52.830;6.914;2023-11-19T15:11:10;10.50;99.90
52725;DHT22;38621;52.830;6.914;2023-11-19T15:13:37;10.60;99.90
52725;DHT22;38621;52.830;6.914;2023-11-19T15:16:04;10.60;99.90
52725;DHT22;38621;52.830;6.914;2023-11-19T15:18:32;10.70;99.90
52725;DHT22;38621;52.830;6.914;2023-11-19T15:20:58;10.70;99.90
52725;DHT22;38621;52.830;6.914;2023-11-19T15:23:24;10.70;99.90
52725;DHT22;38621;52.830;6.914;2023-11-19T15:25:50;10.70;99.90
52725;DHT22;38621;52.830;6.914;2023-11-19T15:28:15;10.70;99.90
52725;DHT22;38621;52.830;6.914;2023-11-19T15:30:42;10.70;99.90
52725;DHT22;38621;52.830;6.914;2023-11-19T15:33:07;10.70;99.90
52725;DHT22;38621;52.830;6.914;2023-11-19T15:35:34;10.70;99.90
52725;DHT22;38621;52.830;6.914;2023-11-19T15:38:01;10.60;99.90
52725;DHT22;38621;52.830;6.914;2023-11-19T15:40:26;10.70;99.90
52725;DHT22;38621;52.830;6.914;2023-11-19T15:42:53;10.60;99.90
52725;DHT22;38621;52.830;6.914;2023-11-19T15:45:20;10.60;99.90
52725;DHT22;38621;52.830;6.914;2023-11-19T15:47:46;10.60;99.90